Terminal Aerodrome Forecast
Issued by NWS Billings, MT

Home | Current Version | Previous Version | Text Only | Print | Product List | Glossary Off
Versions: 1 2 3 4 5 6 7 8 9 10 11 12 13 14

000
FTUS45 KBYZ 061132
TAFMLS
TAF
KMLS 061132Z 0612/0712 31012KT P6SM SCT030
     FM061600 32014G22KT P6SM SCT035 BKN050
     FM070300 31010KT P6SM SCT030=

USA.gov is the U.S. government's official web portal to all federal, state and local government web resources and services.